Date,TemperatureHighF,TemperatureAvgF,TemperatureLowF,DewpointHighF,DewpointAvgF,DewpointLowF,HumidityHigh,HumidityAvg,HumidityLow,PressureMaxIn,PressureMinIn,WindSpeedMaxMPH,WindSpeedAvgMPH,GustSpeedMaxMPH,PrecipitationSumIn
2013-1-1,53.4,43.0,36.1,42.9,35.5,31.2,95,76,57,30.08,29.99,6,1,11,0.00
2013-1-2,61.0,45.9,36.7,45.0,33.1,28.4,82,63,33,30.05,29.95,1,0,2,0.00
2013-1-3,58.8,46.9,37.2,42.7,33.0,25.8,70,59,37,30.07,29.96,2,0,2,0.00
2013-1-4,62.6,47.8,40.3,46.0,33.2,25.5,86,58,32,30.09,30.01,2,0,4,0.02
2013-1-5,52.2,46.1,42.3,48.1,43.1,38.3,95,89,83,30.09,29.98,3,0,5,0.00
2013-1-6,48.7,45.2,41.2,45.9,41.5,38.1,99,87,75,30.00,29.87,7,1,12,0.13
2013-1-7,54.9,47.3,41.2,49.0,43.7,38.7,95,88,74,30.08,29.97,8,1,15,0.00
2013-1-8,63.0,50.9,44.1,53.2,45.9,41.5,98,84,65,30.04,29.95,2,0,3,0.00
2013-1-9,55.4,47.2,37.6,48.3,42.8,32.9,91,85,75,29.97,29.83,8,1,13,0.00
2013-1-10,46.9,41.8,37.8,37.6,34.9,31.3,90,77,58,30.01,29.90,11,3,24,0.02
2013-1-11,49.6,42.0,34.3,38.4,34.8,30.5,89,76,56,30.07,29.95,7,1,13,0.00
2013-1-12,50.0,41.2,35.1,35.8,30.9,24.9,82,67,45,30.06,29.95,5,1,8,0.00
2013-1-13,48.9,39.5,30.7,29.7,22.1,11.2,82,52,26,30.07,29.97,6,1,21,0.00
2013-1-14,51.6,41.5,35.1,23.0,12.1,3.9,61,31,19,30.21,30.01,14,2,23,0.00
2013-1-15,54.5,40.7,32.0,31.8,26.6,21.2,74,58,38,30.28,30.20,2,0,4,0.00
2013-1-16,61.2,42.8,35.6,41.9,30.4,24.0,77,64,25,30.23,30.10,2,0,3,0.00
2013-1-17,70.9,58.7,45.0,44.2,32.6,23.5,62,41,19,30.10,29.96,1,0,3,0.00
2013-1-18,73.2,58.4,48.4,41.8,27.5,13.0,57,33,12,30.03,29.95,2,0,4,0.00
2013-1-19,72.9,56.2,47.1,47.5,28.4,14.4,53,37,12,30.05,29.98,2,0,4,0.00
2013-1-20,74.5,56.2,32.0,45.6,30.1,1.0,52,38,19,30.04,29.93,2,0,4,0.00
2013-1-21,74.8,55.1,46.0,46.1,25.4,16.2,48,33,14,29.99,29.90,2,0,3,0.00
2013-1-22,71.6,56.2,48.4,42.1,29.6,17.9,52,37,14,29.95,29.85,3,0,5,0.00
2013-1-23,57.9,53.0,48.7,48.2,38.0,25.8,93,60,33,29.92,29.81,2,0,5,0.06
2013-1-24,55.0,51.4,49.1,54.5,49.1,46.3,98,92,79,29.99,29.88,2,0,4,0.25
2013-1-25,69.3,57.7,53.4,62.1,52.4,43.9,98,83,65,29.99,29.85,4,1,8,0.00
2013-1-26,56.1,50.0,45.0,51.6,44.3,38.2,96,82,60,29.90,29.82,8,2,16,0.01
2013-1-27,55.6,46.2,41.5,39.7,37.2,33.3,86,72,49,29.97,29.88,4,1,11,0.00
2013-1-28,56.1,46.1,39.9,42.0,38.9,36.1,89,77,57,30.09,29.96,5,2,12,0.00
2013-1-29,58.1,48.2,42.8,44.3,41.2,38.9,89,77,59,30.14,30.05,3,1,11,0.00
2013-1-30,64.2,54.7,45.7,48.2,41.2,34.9,81,61,44,30.15,30.06,6,1,15,0.00
2013-1-31,73.2,53.4,43.5,51.2,41.4,35.1,78,65,42,30.09,29.98,1,0,3,0.00
2013-2-1,75.7,53.6,45.0,53.5,43.2,39.5,85,71,35,30.03,29.93,2,0,4,0.00
2013-2-2,61.3,50.0,42.4,50.9,44.9,39.0,93,83,64,30.08,30.01,2,0,4,0.00
2013-2-3,61.7,48.4,43.0,49.2,43.5,40.4,96,84,60,30.05,29.93,4,1,10,0.00
2013-2-4,68.9,49.3,38.1,54.4,43.3,36.8,95,82,50,29.97,29.86,2,0,3,0.00
2013-2-5,54.3,47.1,41.9,45.0,42.6,40.0,96,85,69,29.95,29.87,5,2,13,0.00
2013-2-6,65.7,46.6,38.1,47.6,40.8,36.0,93,81,51,29.99,29.92,4,1,8,0.00
2013-2-7,51.1,42.7,36.5,46.7,38.3,34.4,94,85,61,29.99,29.82,3,0,8,0.01
2013-2-8,48.0,41.6,36.9,40.9,37.1,34.5,96,85,64,29.81,29.74,5,1,10,0.00
2013-2-9,60.8,44.6,35.2,41.4,36.5,26.4,88,74,40,29.91,29.79,2,0,5,0.00
2013-2-10,67.5,45.3,33.1,42.7,33.1,29.8,89,66,31,29.91,29.81,5,0,11,0.00
2013-2-11,65.5,48.6,38.1,34.9,28.3,14.7,77,50,16,30.04,29.86,11,1,22,0.00
2013-2-12,66.2,47.4,37.2,43.4,36.6,30.0,88,68,36,30.15,30.04,2,0,4,0.00
2013-2-13,72.9,50.5,39.0,48.3,39.2,35.0,86,67,36,30.13,30.02,2,0,3,0.00
2013-2-14,71.6,55.9,41.5,43.5,38.1,34.7,86,55,31,30.03,29.95,8,1,15,0.00
2013-2-15,83.3,61.1,48.7,50.9,37.5,30.2,64,44,19,30.07,29.99,2,0,4,0.00
2013-2-16,78.3,60.5,52.2,51.2,36.3,27.5,59,43,17,30.04,29.87,2,0,6,0.00
2013-2-17,65.3,50.2,42.3,48.7,42.5,36.7,92,75,53,29.87,29.78,4,0,9,0.00
2013-2-18,50.2,43.9,38.5,44.6,39.6,37.1,96,85,68,29.86,29.79,3,0,8,0.00
2013-2-19,45.0,40.9,36.9,44.2,38.1,32.6,97,90,80,29.80,29.57,6,1,11,0.00
2013-2-20,60.3,44.3,34.3,39.1,35.3,31.6,92,72,41,29.87,29.63,8,2,100,0.00
2013-2-21,59.0,47.1,39.9,39.4,34.9,28.7,90,65,33,29.98,29.84,9,1,17,0.00
2013-2-22,69.4,48.7,35.8,41.4,35.1,30.7,85,63,29,30.06,29.97,7,1,11,0.00
2013-2-23,61.2,48.1,42.6,44.2,38.0,32.0,93,69,46,30.06,29.95,7,2,14,0.00
2013-2-24,63.5,50.9,42.4,33.3,22.5,14.0,69,35,16,30.05,29.96,9,3,24,0.00
2013-2-25,69.3,49.3,36.5,45.3,36.6,27.2,84,63,40,30.07,29.97,5,0,9,0.00
2013-2-26,69.8,53.5,39.4,38.3,24.5,6.8,84,39,10,30.01,29.93,8,2,17,0.00
2013-2-27,77.7,55.7,41.9,42.0,34.1,26.6,64,47,19,30.17,30.01,6,1,13,0.00
2013-2-28,79.3,56.7,45.1,53.6,46.1,39.2,85,69,40,30.25,30.17,5,0,11,0.00
2013-3-1,81.3,61.4,49.3,56.7,48.5,45.1,91,66,36,30.24,30.03,3,0,6,0.00
2013-3-2,75.6,59.4,49.3,52.9,46.2,41.4,90,64,38,30.06,29.89,3,0,4,0.00
2013-3-3,68.9,52.9,45.3,54.3,47.3,42.6,94,82,53,29.93,29.85,4,0,9,0.00
2013-3-4,65.5,50.1,43.3,50.2,44.3,41.2,93,82,56,29.95,29.86,4,0,8,0.00
2013-3-5,52.5,46.0,42.3,44.2,41.8,40.6,97,86,67,29.89,29.73,4,1,8,0.00
2013-3-6,52.7,45.9,41.7,47.2,44.3,39.2,99,95,67,29.89,29.73,3,0,8,0.00
2013-3-7,54.7,45.0,38.5,47.1,41.4,37.4,97,88,61,29.78,29.67,3,0,4,0.00
2013-3-8,59.5,47.2,41.0,49.2,41.3,38.0,96,81,58,29.89,29.63,11,2,21,0.00
2013-3-9,66.6,52.7,44.2,45.9,39.0,31.6,86,63,30,30.11,29.89,11,2,18,0.00
2013-3-10,77.5,54.1,40.8,51.1,41.5,31.1,86,65,21,30.14,30.06,3,0,6,0.19
2013-3-11,80.2,57.8,43.0,51.1,39.4,34.2,75,54,23,30.07,29.92,2,0,4,0.00
2013-3-12,82.9,60.3,43.9,51.8,44.1,38.4,82,58,28,29.95,29.87,2,0,4,0.00
2013-3-13,89.6,64.4,51.1,59.8,47.0,35.8,83,59,22,29.96,29.88,2,0,4,0.00
2013-3-14,81.3,61.7,50.0,58.1,45.9,23.8,89,60,20,29.97,29.90,7,1,14,0.00
2013-3-15,79.0,60.4,45.3,50.7,41.3,32.0,75,51,26,29.94,29.86,6,1,11,0.00
2013-3-16,82.6,57.7,42.6,58.5,40.7,22.3,94,61,19,29.92,29.85,8,1,16,0.07
2013-3-17,77.5,56.2,44.4,48.4,41.2,28.2,79,60,19,29.95,29.85,6,1,11,0.00
2013-3-18,71.6,53.1,40.3,52.8,43.2,34.8,85,70,47,29.93,29.85,5,0,11,0.00
2013-3-19,81.9,56.8,45.9,53.0,42.5,33.4,94,62,29,29.97,29.87,4,0,13,0.05
2013-3-20,65.7,55.4,50.5,54.8,51.4,49.2,96,87,61,29.94,29.89,4,0,9,0.01
2013-3-21,69.8,52.5,42.1,49.3,41.7,38.1,91,69,40,29.94,29.81,7,2,14,0.00
2013-3-22,70.3,55.6,43.9,39.4,23.8,4.5,83,36,10,29.91,29.82,13,2,21,0.00
2013-3-23,79.2,57.3,44.4,38.1,29.6,15.4,62,39,10,29.92,29.85,4,0,8,0.00
2013-3-24,77.5,56.2,42.4,50.9,40.8,34.0,76,59,33,29.90,29.78,2,0,4,0.00
2013-3-25,71.1,53.6,43.5,51.5,42.7,37.0,86,68,48,29.83,29.75,2,0,5,0.00
2013-3-26,74.8,55.0,43.9,52.5,45.4,39.9,89,73,45,29.81,29.73,4,0,8,0.00
2013-3-27,69.1,55.8,46.0,54.8,49.4,44.1,94,80,57,29.81,29.77,4,0,8,0.00
2013-3-28,60.6,60.6,60.6,52.3,52.3,52.3,74,74,74,29.81,29.81,1,1,4,0.00
2013-3-29,60.6,59.6,52.7,52.3,51.9,49.3,89,76,74,29.96,29.81,2,1,4,0.09
2013-3-30,73.2,55.3,49.3,57.1,50.8,48.1,97,86,49,29.98,29.89,4,0,9,0.32
2013-3-31,63.9,55.2,51.4,57.3,51.9,50.5,99,89,69,29.97,29.89,4,1,14,0.08
2013-4-1,69.8,55.2,49.3,57.2,51.3,46.5,99,88,61,30.04,29.94,3,0,7,0.40
2013-4-2,75.4,57.7,44.1,58.4,50.2,43.1,98,78,44,30.06,29.97,2,0,5,0.00
2013-4-3,81.3,58.2,46.4,58.0,48.5,37.0,96,75,27,30.01,29.89,3,0,4,0.00
2013-4-4,57.0,52.3,48.2,56.5,51.4,46.5,99,97,92,30.01,29.91,2,0,3,0.46
2013-4-5,68.9,56.5,50.9,57.9,51.2,47.4,99,84,55,30.07,30.00,5,1,11,0.00
2013-4-6,66.4,55.1,47.5,58.2,48.4,39.0,96,80,48,30.09,30.02,7,1,11,0.01
2013-4-7,70.9,55.4,46.8,58.6,48.7,44.8,95,79,53,30.06,29.78,6,1,11,0.08
2013-4-8,63.9,52.2,44.6,49.2,37.5,27.6,95,61,29,29.90,29.71,14,5,30,0.02
2013-4-9,72.1,61.7,45.1,40.1,31.9,22.2,82,35,17,29.96,29.89,12,4,24,0.00
2013-4-10,89.6,69.0,56.7,47.0,36.1,25.8,70,32,17,29.97,29.86,12,2,21,0.00
2013-4-11,75.0,58.7,46.8,51.9,44.3,38.4,85,62,30,29.89,29.67,8,2,20,0.00
2013-4-12,79.5,56.3,41.9,56.6,45.9,39.7,93,71,41,29.73,29.65,4,0,7,0.00
2013-4-13,77.0,53.8,44.4,55.3,43.1,37.1,88,69,32,29.72,29.66,9,2,17,0.00
2013-4-14,73.6,53.0,42.1,44.0,39.4,33.1,89,65,25,29.73,29.68,8,2,20,0.00
2013-4-15,58.5,48.1,42.1,46.3,38.8,33.5,95,72,45,29.76,29.67,13,3,24,0.01
2013-4-16,68.0,51.8,38.5,36.8,32.0,25.3,87,51,24,29.93,29.75,8,3,17,0.01
2013-4-17,69.3,58.2,50.4,34.2,26.1,17.4,53,30,15,30.05,29.93,11,3,21,0.01
2013-4-18,79.9,59.9,44.2,40.1,31.0,18.2,68,39,11,30.06,29.98,6,1,16,0.00
2013-4-19,85.5,67.4,48.0,50.9,43.1,36.0,68,44,26,30.04,29.89,7,1,14,0.00
2013-4-20,89.2,71.2,52.0,44.3,37.9,24.4,74,33,10,29.89,29.79,8,2,15,0.00
2013-4-21,91.9,72.7,51.4,50.1,35.7,24.0,68,33,10,29.93,29.77,6,1,11,0.15
2013-4-22,89.1,67.0,51.3,54.9,48.8,40.0,88,55,30,29.87,29.79,3,1,6,0.00
2013-4-23,81.0,59.5,45.0,55.2,49.0,32.5,95,71,37,29.86,29.77,5,1,10,0.00
2013-4-24,65.5,52.8,44.4,52.5,48.0,43.6,97,84,62,29.87,29.74,2,0,4,0.00
2013-4-25,78.3,59.9,46.2,53.7,49.5,45.1,97,71,40,30.02,29.88,3,0,8,0.00
2013-4-26,80.4,61.2,45.0,56.7,50.8,43.9,98,72,41,30.11,30.03,2,0,4,0.00
2013-4-27,88.2,63.4,44.2,59.1,49.5,42.9,95,65,32,30.11,29.99,3,0,4,0.00
2013-4-28,87.3,64.6,44.4,59.1,51.8,42.1,93,67,36,29.95,29.81,2,0,4,0.00
2013-4-29,100.6,75.6,57.4,51.7,45.6,33.8,75,39,12,29.93,29.73,8,1,16,0.00
2013-4-30,86.7,67.9,49.6,57.2,43.6,31.5,85,48,17,29.96,29.89,4,0,9,0.00
2013-5-1,82.4,62.7,46.8,54.9,49.7,42.2,90,66,34,30.19,29.98,2,0,4,0.00
2013-5-2,102.7,79.7,64.9,47.3,34.2,23.2,42,22,10,30.24,30.19,4,0,8,0.00
2013-5-3,100.2,76.1,57.2,50.9,33.9,21.7,54,26,10,30.15,29.93,3,0,7,0.00
2013-5-4,88.2,62.3,51.3,52.3,46.2,32.9,86,60,22,29.85,29.76,2,0,17,0.00
2013-5-5,71.6,57.2,52.0,51.7,49.1,47.0,84,75,49,29.91,29.74,3,0,8,0.00
2013-5-6,64.9,57.7,53.4,53.7,50.9,49.5,88,79,61,30.07,29.91,2,0,7,0.00
2013-5-7,78.6,60.8,52.5,56.5,49.9,45.0,88,69,42,30.15,30.06,3,0,6,0.00
2013-5-8,72.9,57.6,46.0,55.8,48.3,43.1,93,73,50,30.24,30.14,2,0,6,0.00
2013-5-9,80.1,59.3,48.0,56.4,50.2,45.3,93,74,44,30.27,30.17,3,0,6,0.00
2013-5-10,85.8,61.5,47.1,60.1,51.9,45.5,95,74,41,30.28,30.19,2,0,4,0.00
2013-5-11,97.0,68.3,52.9,62.6,53.5,49.6,91,65,28,30.25,30.16,2,0,3,0.00
2013-5-12,94.8,70.9,54.7,58.8,50.1,37.9,85,52,25,30.23,30.12,4,0,12,0.00
2013-5-13,91.9,67.9,52.9,57.8,47.2,35.4,80,49,30,30.19,30.07,4,0,13,0.00
2013-5-14,78.1,60.0,49.6,56.3,50.2,43.2,91,72,46,30.15,30.06,3,0,7,0.00
2013-5-15,75.7,56.6,47.1,52.3,45.6,42.1,87,69,35,30.17,30.13,5,1,13,0.00
2013-5-16,69.3,58.2,50.9,57.1,50.6,46.6,92,77,54,30.15,30.07,5,1,11,0.00
2013-5-17,72.7,58.8,48.2,47.8,44.4,32.3,88,62,25,30.14,30.09,6,2,12,0.00
2013-5-18,58.8,58.8,58.8,44.1,44.1,44.1,58,58,58,30.14,30.14,2,2,8,0.00
2013-5-19,85.1,67.1,47.8,51.4,42.4,33.1,88,45,16,30.20,30.08,4,1,12,0.02
2013-5-20,92.5,70.8,53.6,46.9,34.7,23.2,65,33,10,30.10,30.04,6,1,12,0.00
2013-5-21,72.9,57.4,46.8,52.2,42.5,36.1,76,59,34,30.11,30.02,8,1,14,0.00
2013-5-22,70.3,52.6,43.0,41.4,35.2,21.3,81,56,17,30.09,30.03,7,1,13,0.00
2013-5-23,66.6,53.6,45.5,45.2,40.8,38.0,81,64,41,30.11,30.02,8,1,15,0.00
2013-5-24,79.7,55.3,41.5,50.3,42.0,36.8,87,65,29,30.12,30.06,5,1,12,0.00
2013-5-25,71.4,54.6,45.9,49.4,44.7,41.0,88,72,42,30.17,30.09,5,1,12,0.00
2013-5-26,72.7,58.5,50.7,54.2,50.0,47.1,94,75,49,30.24,30.17,5,1,11,0.00
2013-5-27,68.0,58.6,51.1,55.6,51.8,47.2,90,79,61,30.24,30.12,4,1,10,0.00
2013-5-28,75.6,60.8,52.7,58.5,52.3,46.4,95,76,47,30.12,30.02,6,1,11,0.00
2013-5-29,79.2,60.2,51.3,58.4,49.2,44.5,84,69,41,30.07,30.01,8,1,15,0.00
2013-5-30,84.2,61.6,46.9,51.7,39.0,14.9,91,52,10,30.10,30.04,6,1,12,0.00
2013-5-31,94.5,68.5,48.2,53.6,40.6,27.3,78,44,11,30.11,30.01,4,0,11,0.00
2013-6-1,99.7,73.4,56.5,58.0,48.6,40.0,66,45,18,30.04,29.89,3,0,8,0.00
2013-6-2,85.6,62.7,52.0,57.9,51.1,46.8,87,68,38,29.91,29.83,2,0,4,0.00
2013-6-3,71.6,58.0,50.7,57.4,51.5,48.7,96,80,59,29.98,29.86,2,0,6,0.00
2013-6-4,72.7,58.4,48.7,58.0,52.1,46.8,94,81,59,30.09,29.97,2,0,6,0.01
2013-6-5,78.4,62.1,48.9,59.3,52.6,47.3,95,73,49,30.10,30.03,2,0,4,0.00
2013-6-6,81.9,63.5,50.7,59.4,53.4,49.1,95,72,45,30.05,29.98,2,0,4,0.00
2013-6-7,92.3,67.2,50.4,63.4,55.5,49.3,97,70,37,29.97,29.88,2,0,4,0.00
2013-6-8,84.0,61.9,50.2,61.3,54.0,48.0,95,78,43,29.97,29.86,2,0,4,0.00
2013-6-9,66.4,58.6,54.5,59.7,55.0,52.5,97,88,73,30.01,29.94,2,0,5,0.00
2013-6-10,67.8,60.9,54.1,54.7,52.6,50.2,87,75,62,30.07,29.97,3,0,6,0.00
2013-6-11,78.6,66.5,53.6,60.7,55.2,51.2,92,69,51,30.08,30.00,2,0,4,0.00
2013-6-12,86.2,66.5,50.9,59.2,47.4,37.3,82,53,27,30.12,30.02,6,1,14,0.00
2013-6-13,87.4,67.3,47.8,53.4,46.0,31.8,84,51,25,30.18,30.10,5,0,11,0.00
2013-6-14,93.7,72.0,49.8,50.9,42.3,32.8,80,41,15,30.04,29.94,5,0,10,0.00
2013-6-15,78.4,59.0,47.5,56.6,50.3,45.0,93,75,45,30.11,29.95,2,0,4,0.00
2013-6-16,86.0,64.0,47.5,58.4,49.3,39.0,95,65,25,30.19,30.11,7,1,16,0.00
2013-6-17,83.8,65.9,52.0,56.2,51.1,45.7,83,62,30,30.19,30.13,7,2,15,0.00
2013-6-18,73.9,60.8,52.5,52.5,48.3,43.8,88,66,36,30.15,30.10,8,2,17,0.00
2013-6-19,76.1,62.9,50.7,51.9,46.3,40.9,85,57,36,30.15,30.10,8,2,17,0.00
2013-6-20,86.9,65.9,47.8,54.6,45.2,28.9,88,53,17,30.10,30.04,8,1,16,0.00
2013-6-21,89.2,69.6,48.0,73.2,47.6,34.5,88,50,22,30.07,30.02,97,2,12,0.00
2013-6-22,68.9,68.9,68.9,43.6,43.6,43.6,40,40,40,30.04,30.00,4,4,10,0.00
2013-6-23,66.9,62.6,60.3,59.5,57.8,56.7,89,84,77,29.93,29.92,1,0,2,0.00
2013-6-24,64.8,60.4,58.3,61.1,58.6,57.2,98,94,86,30.01,29.89,1,0,2,0.00
2013-6-25,67.1,61.7,56.5,66.0,61.2,56.2,99,98,96,30.10,30.01,1,0,2,0.13
2013-6-26,90.7,74.6,59.7,73.4,64.8,59.5,99,74,50,30.13,30.06,3,0,10,0.66
2013-6-27,104.5,78.7,61.2,66.6,61.0,55.9,88,59,28,30.14,29.88,2,0,5,0.00
2013-6-28,107.4,83.9,64.8,65.5,53.9,32.3,72,40,12,29.89,29.79,3,0,7,0.00
2013-6-29,111.0,81.9,65.8,58.9,51.4,35.8,66,38,13,29.81,29.70,2,0,6,0.00
2013-6-30,105.3,78.1,61.9,61.1,54.1,38.6,75,48,17,29.75,29.65,3,0,6,0.00
2013-7-1,104.2,77.8,63.1,60.1,56.7,50.8,70,50,20,29.76,29.68,0,0,2,0.00
2013-7-2,104.4,77.8,62.8,63.8,58.2,54.9,79,54,22,29.93,29.73,1,0,3,0.00
2013-7-3,93.7,76.0,58.5,65.3,60.0,54.8,89,61,37,29.87,29.78,1,0,2,0.00
2013-7-4,94.6,73.4,59.5,65.7,59.6,55.4,88,65,36,29.78,29.72,2,0,5,0.00
2013-7-5,83.8,66.1,53.1,60.1,54.8,50.6,95,69,43,29.81,29.73,4,0,8,0.00
2013-7-6,78.6,59.1,52.9,60.1,53.0,50.7,95,82,51,29.81,29.75,2,0,5,0.00
2013-7-7,83.5,62.0,52.9,59.5,53.1,50.0,92,75,43,29.86,29.78,2,0,5,0.00
2013-7-8,88.0,65.4,51.8,61.5,53.2,43.4,95,70,27,29.95,29.86,2,0,4,0.00
2013-7-9,99.7,73.3,50.9,62.5,55.4,48.4,93,59,27,29.99,29.92,2,0,3,0.00
2013-7-10,88.7,67.4,52.7,62.9,56.1,51.3,97,71,39,29.96,29.89,2,0,4,0.00
2013-7-11,82.9,62.9,52.9,61.1,55.2,51.8,97,80,44,29.93,29.90,2,0,4,0.00
2013-7-12,85.6,65.1,51.4,61.2,53.6,49.2,97,69,43,29.92,29.87,1,0,3,0.00
2013-7-13,87.8,63.3,47.8,61.3,53.2,45.9,95,73,40,29.95,29.89,2,0,4,0.00
2013-7-14,87.3,63.9,50.0,61.4,53.6,48.7,96,73,40,29.97,29.89,2,0,3,0.00
2013-7-15,78.3,61.9,51.8,60.3,54.1,50.6,97,78,52,29.91,29.82,2,0,4,0.00
2013-7-16,76.1,62.3,53.4,61.1,55.4,51.5,96,80,57,29.99,29.87,2,0,4,0.01
2013-7-17,88.2,69.0,54.0,61.3,56.2,51.9,93,67,39,30.05,29.99,2,0,4,0.00
2013-7-18,90.0,67.7,49.3,62.4,55.1,47.3,95,68,37,30.03,29.92,2,0,3,0.00
2013-7-19,86.2,65.3,51.1,62.2,55.1,50.2,97,73,43,29.93,29.83,2,0,3,0.00
2013-7-20,82.4,60.5,52.3,61.8,53.7,49.9,96,80,48,29.85,29.77,2,0,4,0.00
2013-7-21,87.6,65.6,50.9,63.0,55.2,49.6,97,73,40,29.87,29.76,2,0,3,0.00
2013-7-22,83.8,68.3,57.6,64.5,58.4,54.4,93,72,50,29.94,29.87,2,0,3,0.00
2013-7-23,92.3,70.8,60.1,62.7,57.6,54.1,87,66,30,29.98,29.93,2,0,4,0.00
2013-7-24,92.7,72.2,55.8,63.7,57.4,52.3,90,63,35,29.96,29.89,1,0,3,0.00
2013-7-25,89.2,67.6,52.5,63.4,56.4,50.8,95,71,40,30.01,29.91,2,0,4,0.00
2013-7-26,85.8,65.7,52.9,62.9,56.3,51.5,97,75,43,30.07,30.00,2,0,4,0.00
2013-7-27,84.9,63.2,53.6,63.0,55.7,52.1,97,79,46,30.02,29.86,2,0,4,0.00
2013-7-28,79.0,60.1,53.1,62.0,54.9,51.7,97,84,55,29.88,29.82,2,0,4,0.00
2013-7-29,73.4,59.9,53.2,59.9,53.6,50.7,91,80,62,30.00,29.86,2,0,4,0.00
2013-7-30,82.9,64.5,53.1,60.4,53.9,50.5,92,71,43,30.07,30.00,2,0,4,0.00
2013-7-31,82.9,65.5,52.3,60.6,54.2,47.0,95,70,45,30.07,29.99,2,0,5,0.00
2013-8-1,80.8,66.6,51.1,57.5,50.1,44.0,91,59,31,30.06,29.94,4,1,10,0.00
2013-8-2,85.6,64.4,48.7,60.3,52.8,45.0,91,69,41,29.96,29.89,2,0,4,0.00
2013-8-3,74.1,58.5,51.8,60.1,53.4,50.4,96,84,60,29.97,29.91,2,0,4,0.00
2013-8-4,79.3,60.5,52.2,61.8,54.3,50.4,97,82,54,29.99,29.93,1,0,4,0.00
2013-8-5,84.2,64.4,48.9,61.4,54.2,48.1,98,73,45,30.00,29.92,2,0,3,0.00
2013-8-6,79.9,63.0,51.1,60.8,54.7,49.9,96,76,50,30.03,29.95,2,0,6,0.00
2013-8-7,82.0,66.0,55.6,60.2,55.9,52.9,93,72,47,30.07,30.00,2,0,4,0.00
2013-8-8,79.0,63.6,53.4,62.1,55.5,52.3,97,77,54,29.99,29.91,2,0,4,0.00
2013-8-9,80.8,65.5,52.5,60.3,55.8,50.8,94,73,48,29.98,29.90,3,0,5,0.00
2013-8-10,87.3,65.5,54.1,63.7,56.7,53.0,96,76,44,30.01,29.96,2,0,4,0.00
2013-8-11,87.1,65.7,52.3,63.7,56.4,51.5,98,76,44,30.00,29.91,2,0,4,0.00
2013-8-12,87.6,67.5,51.4,63.4,56.7,50.6,97,72,42,29.97,29.92,2,0,4,0.00
2013-8-13,93.4,71.7,52.9,61.4,54.6,48.8,91,59,34,29.96,29.89,2,0,7,0.00
2013-8-14,93.2,72.0,53.1,60.3,51.7,39.9,83,54,20,29.96,29.89,7,1,11,0.00
2013-8-15,98.8,77.5,58.8,68.0,62.0,57.4,95,64,30,29.93,29.88,4,0,7,0.00
2013-8-16,97.7,76.8,61.3,68.1,59.0,44.4,89,57,37,29.96,29.90,4,0,9,0.00
2013-8-17,82.2,67.6,57.7,61.3,52.8,40.4,82,60,42,29.97,29.87,4,0,11,0.00
2013-8-18,61.0,61.0,61.0,55.5,55.5,55.5,82,82,82,29.89,29.85,0,0,0,0.00
2013-8-19,95.7,72.2,56.1,64.8,57.4,53.5,92,63,28,29.97,29.85,2,0,4,0.00
2013-8-20,82.2,68.2,55.6,61.0,56.3,51.6,88,67,47,29.93,29.86,2,0,4,0.00
2013-8-21,84.0,65.8,53.8,60.1,54.5,51.9,94,70,43,29.95,29.87,2,0,13,0.00
2013-8-22,81.7,68.2,51.4,60.5,55.3,49.5,95,66,45,29.98,29.88,2,0,4,0.00
2013-8-23,88.0,68.6,57.9,59.9,54.8,50.6,77,62,39,29.91,29.83,3,0,7,0.00
2013-8-24,89.2,67.5,52.5,61.5,55.2,48.6,87,68,37,29.91,29.85,6,1,11,0.00
2013-8-25,89.6,68.8,58.8,66.0,58.3,51.2,94,73,27,29.97,29.90,2,0,4,0.00
2013-8-26,89.4,70.8,57.4,63.7,56.6,46.9,94,64,42,30.01,29.90,5,1,12,0.00
2013-8-27,92.7,72.4,54.5,68.8,53.6,21.5,77,55,10,29.89,29.82,7,1,98,0.19
2013-8-28,90.3,74.4,57.2,63.1,57.6,13.6,85,60,36,29.94,29.86,2,0,4,0.00
2013-8-29,120.6,74.9,55.2,99.9,60.9,25.3,97,66,31,30.04,29.97,5,1,11,0.00
2013-8-30,98.8,79.0,61.3,67.1,55.9,45.6,86,50,22,30.04,29.92,5,1,11,0.00
2013-8-31,97.9,75.3,61.3,55.7,50.8,42.7,68,45,20,29.98,29.89,2,0,4,0.00
2013-9-1,91.6,73.6,63.5,61.8,55.3,50.6,76,55,30,29.95,29.87,5,0,10,0.00
2013-9-2,88.0,71.3,63.7,65.7,59.8,55.5,86,68,47,29.97,29.88,5,1,9,0.00
2013-9-3,88.3,69.0,58.5,59.3,52.6,46.4,85,60,24,30.00,29.93,6,1,11,0.00
2013-9-4,88.0,67.6,58.5,57.5,54.6,51.4,87,66,33,30.04,29.95,5,2,14,0.00
2013-9-5,84.4,67.2,60.1,57.9,54.4,51.8,86,66,37,30.02,29.96,8,2,14,0.00
2013-9-6,97.0,73.0,52.7,60.6,50.4,39.3,82,51,15,30.00,29.83,2,0,5,0.00
2013-9-7,101.3,73.5,59.5,58.4,52.2,44.3,83,52,15,29.89,29.84,2,0,4,0.00
2013-9-8,90.9,66.7,53.4,63.1,56.5,51.2,92,73,38,29.89,29.78,2,0,4,0.00
2013-9-9,95.0,68.5,55.0,65.5,56.8,52.5,93,70,32,29.82,29.75,1,0,3,0.00
2013-9-10,64.6,59.0,54.5,59.6,56.4,52.9,97,91,82,29.93,29.78,2,0,4,0.00
2013-9-11,76.6,63.0,56.8,62.8,57.6,54.6,95,83,61,30.01,29.92,2,0,3,0.00
2013-9-12,84.4,66.4,56.5,64.1,58.6,54.6,95,78,49,29.98,29.89,2,0,5,0.00
2013-9-13,87.1,67.1,55.4,62.7,56.9,41.6,96,73,25,29.92,29.78,5,0,7,0.00
2013-9-14,81.0,65.0,53.6,61.1,52.7,41.5,95,69,29,29.83,29.74,6,1,11,0.00
2013-9-15,87.4,66.5,53.2,61.3,54.8,50.7,93,69,38,29.86,29.79,4,1,10,0.00
2013-9-16,88.3,67.1,55.4,62.7,56.1,52.8,94,71,40,29.90,29.81,8,1,14,0.00
2013-9-17,77.5,62.3,54.7,57.6,52.9,49.2,86,73,43,29.91,29.86,8,2,18,0.00
2013-9-18,87.8,70.9,52.7,55.8,49.2,43.9,89,52,24,29.91,29.85,5,0,13,0.00
2013-9-19,79.3,79.3,79.3,48.6,48.6,48.6,34,34,34,29.86,29.86,0,0,2,0.00
2013-9-20,79.3,79.3,79.3,48.6,48.6,48.6,34,34,34,29.86,29.86,0,0,2,0.00
2013-9-21,79.3,79.3,79.3,48.6,48.6,48.6,34,34,34,29.86,29.86,0,0,2,0.00
2013-9-22,79.3,79.3,79.3,48.6,48.6,48.6,34,34,34,29.86,29.86,0,0,2,0.00
2013-9-23,79.3,79.3,79.3,48.6,48.6,48.6,34,34,34,29.86,29.86,0,0,2,0.00
2013-9-24,79.3,79.3,79.3,48.6,48.6,48.6,34,34,34,29.86,29.86,0,0,2,0.00
2013-9-25,79.3,79.3,79.3,48.6,48.6,48.6,34,34,34,29.86,29.86,0,0,2,0.00
2013-9-26,79.3,79.3,79.3,48.6,48.6,48.6,34,34,34,29.86,29.86,0,0,2,0.00
2013-9-27,79.3,79.3,79.3,48.6,48.6,48.6,34,34,34,29.86,29.86,0,0,2,0.00
2013-9-28,90.5,66.9,53.4,47.7,38.2,29.1,64,39,12,29.96,29.87,3,0,8,0.00
2013-9-29,88.2,66.6,54.9,57.3,52.9,46.4,84,64,33,29.98,29.91,4,0,8,0.00
2013-9-30,78.8,65.4,56.1,63.4,57.1,53.7,93,76,52,29.96,29.84,3,1,9,0.00
2013-10-1,73.9,61.6,52.9,52.3,48.7,42.7,82,64,40,29.90,29.80,4,1,8,0.00
2013-10-2,82.9,60.9,50.4,53.6,46.7,40.1,84,62,35,29.88,29.80,4,1,7,0.00
2013-10-3,71.8,60.0,49.8,42.4,34.8,23.2,73,44,20,29.92,29.81,4,1,8,0.00
2013-10-4,80.8,72.9,59.0,27.1,24.2,19.6,28,16,12,29.93,29.82,6,2,11,0.00
2013-10-5,95.0,86.6,81.9,30.0,23.6,20.0,10,10,10,30.05,30.04,1,0,4,0.00
2013-10-6,85.3,83.8,81.9,22.6,21.5,20.0,10,10,10,30.04,29.92,2,0,3,0.00
2013-10-10,83.1,54.2,46.9,50.4,48.1,21.0,88,81,10,29.91,29.74,2,0,4,0.00
2013-10-11,67.6,59.8,47.3,56.7,50.5,46.5,97,73,54,29.95,29.85,2,0,4,0.00
2013-10-12,68.2,67.9,67.8,52.1,51.8,51.6,57,56,56,29.79,29.79,0,0,2,0.00
2013-10-14,68.2,56.4,53.2,51.9,43.1,40.7,63,61,56,29.95,29.79,0,0,2,0.00
2013-10-15,80.2,72.9,55.8,36.1,28.2,23.9,47,20,14,29.90,29.82,5,1,10,0.00
2013-10-16,77.4,77.4,77.4,24.5,24.5,24.5,14,14,14,29.82,29.82,1,1,4,0.00